createdAt,value
2018-09-15T00:01:25.220Z,13.60
2018-09-15T00:03:53.461Z,13.60
2018-09-15T00:06:21.563Z,13.60
2018-09-15T00:08:49.804Z,13.60
2018-09-15T00:11:18.085Z,13.60
2018-09-15T00:13:46.394Z,13.60
2018-09-15T00:16:14.899Z,13.50
2018-09-15T00:18:43.237Z,13.50
2018-09-15T00:21:11.697Z,13.50
2018-09-15T00:23:40.118Z,13.40
2018-09-15T00:26:08.709Z,13.40
2018-09-15T00:28:37.075Z,13.40
2018-09-15T00:31:05.524Z,13.40
2018-09-15T00:33:37.260Z,13.30
2018-09-15T00:36:05.660Z,13.30
2018-09-15T00:38:33.870Z,13.30
2018-09-15T00:41:02.256Z,13.30
2018-09-15T00:43:30.683Z,13.30
2018-09-15T00:45:59.047Z,13.30
2018-09-15T00:48:27.470Z,13.30
2018-09-15T00:50:55.856Z,13.30
2018-09-15T00:53:24.253Z,13.30
2018-09-15T00:55:52.655Z,13.40
2018-09-15T00:58:20.867Z,13.40
2018-09-15T01:00:49.147Z,13.40
2018-09-15T01:03:21.001Z,13.40
2018-09-15T01:05:49.563Z,13.40
2018-09-15T01:08:17.914Z,13.40
2018-09-15T01:10:46.889Z,13.40
2018-09-15T01:13:15.119Z,13.50
2018-09-15T01:15:43.528Z,13.50
2018-09-15T01:18:11.940Z,13.50
2018-09-15T01:20:40.327Z,13.40
2018-09-15T01:23:08.588Z,13.40
2018-09-15T01:25:36.915Z,13.40
2018-09-15T01:28:05.227Z,13.40
2018-09-15T01:30:33.943Z,13.40
2018-09-15T01:33:02.461Z,13.40
2018-09-15T01:35:30.961Z,13.40
2018-09-15T01:37:59.221Z,13.40
2018-09-15T01:40:31.934Z,13.40
2018-09-15T01:43:00.437Z,13.40
2018-09-15T01:45:29.518Z,13.40
2018-09-15T01:47:57.849Z,13.40
2018-09-15T01:50:26.240Z,13.40
2018-09-15T01:52:54.748Z,13.40
2018-09-15T01:55:23.259Z,13.40
2018-09-15T01:57:51.537Z,13.40
2018-09-15T02:00:22.093Z,13.40
2018-09-15T02:02:50.367Z,13.30
2018-09-15T02:05:18.872Z,13.30
2018-09-15T02:07:47.176Z,13.30
2018-09-15T02:10:15.402Z,13.20
2018-09-15T02:12:43.572Z,13.20
2018-09-15T02:15:11.966Z,13.20
2018-09-15T02:17:40.581Z,13.20
2018-09-15T02:20:08.994Z,13.20
2018-09-15T02:22:37.323Z,13.20
2018-09-15T02:25:05.670Z,13.10
2018-09-15T02:27:37.522Z,13.20
2018-09-15T02:30:06.172Z,13.20
2018-09-15T02:32:34.550Z,13.20
2018-09-15T02:35:03.184Z,13.20
2018-09-15T02:37:31.530Z,13.20
2018-09-15T02:40:00.673Z,13.20
2018-09-15T02:42:28.986Z,13.20
2018-09-15T02:45:01.074Z,13.20
2018-09-15T02:47:29.562Z,13.30
2018-09-15T02:49:57.993Z,13.30
2018-09-15T02:52:26.576Z,13.30
2018-09-15T02:54:55.130Z,13.30
2018-09-15T02:57:23.350Z,13.30
2018-09-15T02:59:51.763Z,13.30
2018-09-15T03:02:20.167Z,13.30
2018-09-15T03:04:48.676Z,13.30
2018-09-15T03:07:16.846Z,13.30
2018-09-15T03:09:44.927Z,13.30
2018-09-15T03:12:12.929Z,13.30
2018-09-15T03:14:41.464Z,13.30
2018-09-15T03:17:09.945Z,13.30
2018-09-15T03:19:38.414Z,13.30
2018-09-15T03:22:06.744Z,13.30
2018-09-15T03:24:42.622Z,13.40
2018-09-15T03:27:10.894Z,13.40
2018-09-15T03:29:39.288Z,13.40
2018-09-15T03:32:07.799Z,13.40
2018-09-15T03:34:35.998Z,13.40
2018-09-15T03:37:04.211Z,13.40
2018-09-15T03:39:32.412Z,13.40
2018-09-15T03:42:00.950Z,13.40
2018-09-15T03:44:30.942Z,13.40
2018-09-15T03:46:59.452Z,13.40
2018-09-15T03:49:27.714Z,13.40
2018-09-15T03:52:08.189Z,13.40
2018-09-15T03:54:36.715Z,13.40
2018-09-15T03:57:05.153Z,13.40
2018-09-15T03:59:33.633Z,13.40
2018-09-15T04:02:02.026Z,13.40
2018-09-15T04:04:30.518Z,13.40
2018-09-15T04:06:59.017Z,13.40
2018-09-15T04:09:27.405Z,13.40
2018-09-15T04:11:59.618Z,13.40
2018-09-15T04:14:27.994Z,13.40
2018-09-15T04:16:56.418Z,13.40
2018-09-15T04:19:24.884Z,13.50
2018-09-15T04:21:53.271Z,13.50
2018-09-15T04:24:21.581Z,13.50
2018-09-15T04:26:49.993Z,13.50
2018-09-15T04:29:18.348Z,13.60
2018-09-15T04:31:46.679Z,13.60
2018-09-15T04:34:15.006Z,13.60
2018-09-15T04:36:45.565Z,13.60
2018-09-15T04:39:13.938Z,13.60
2018-09-15T04:41:42.399Z,13.60
2018-09-15T04:44:10.966Z,13.60
2018-09-15T04:46:39.309Z,13.60
2018-09-15T04:49:09.629Z,13.60
2018-09-15T04:51:37.764Z,13.50
2018-09-15T04:54:06.356Z,13.50
2018-09-15T04:56:34.657Z,13.50
2018-09-15T04:59:03.663Z,13.40
2018-09-15T05:01:32.096Z,13.40
2018-09-15T05:04:00.576Z,13.40
2018-09-15T05:06:28.895Z,13.40
2018-09-15T05:08:57.190Z,13.40
2018-09-15T05:11:25.494Z,13.50
2018-09-15T05:13:54.158Z,13.40
2018-09-15T05:16:22.707Z,13.50
2018-09-15T05:18:52.357Z,13.50
2018-09-15T05:21:23.538Z,13.60
2018-09-15T05:23:51.852Z,13.70
2018-09-15T05:26:20.286Z,13.70
2018-09-15T05:28:49.084Z,13.80
2018-09-15T05:31:17.492Z,13.80
2018-09-15T05:33:45.863Z,13.80
2018-09-15T05:36:14.064Z,13.80
2018-09-15T05:38:42.385Z,13.90
2018-09-15T05:41:10.860Z,14.00
2018-09-15T05:43:39.353Z,14.10
2018-09-15T05:46:07.765Z,14.20
2018-09-15T05:48:36.176Z,14.30
2018-09-15T05:51:04.803Z,14.50
2018-09-15T05:53:36.957Z,14.70
2018-09-15T05:56:05.500Z,15.10
2018-09-15T05:58:33.881Z,15.30
2018-09-15T06:01:02.488Z,15.50
2018-09-15T06:03:31.073Z,15.40
2018-09-15T06:05:59.488Z,15.30
2018-09-15T06:08:28.813Z,15.20
2018-09-15T06:10:58.150Z,15.10
2018-09-15T06:13:26.628Z,15.00
2018-09-15T06:15:55.031Z,14.90
2018-09-15T06:18:23.333Z,14.80
2018-09-15T06:20:51.621Z,14.80
2018-09-15T06:23:19.919Z,15.90
2018-09-15T06:25:48.435Z,17.90
2018-09-15T06:28:16.953Z,19.70
2018-09-15T06:30:45.879Z,20.60
2018-09-15T06:33:14.255Z,20.60
2018-09-15T06:35:42.684Z,20.10
2018-09-15T06:38:11.135Z,19.50
2018-09-15T06:40:39.552Z,18.90
2018-09-15T06:43:08.008Z,18.20
2018-09-15T06:45:36.502Z,17.70
2018-09-15T06:48:04.938Z,17.30
2018-09-15T06:50:33.303Z,16.90
2018-09-15T06:53:01.845Z,16.60
2018-09-15T06:55:30.033Z,16.30
2018-09-15T06:57:58.234Z,16.20
2018-09-15T07:00:26.405Z,16.00
2018-09-15T07:02:54.829Z,15.90
2018-09-15T07:05:23.298Z,15.90
2018-09-15T07:07:51.827Z,16.30
2018-09-15T07:10:20.331Z,18.50
2018-09-15T07:12:48.983Z,21.30
2018-09-15T07:15:17.663Z,23.80
2018-09-15T07:17:46.055Z,25.90
2018-09-15T07:20:14.520Z,27.30
2018-09-15T07:22:43.503Z,28.20
2018-09-15T07:25:11.961Z,28.70
2018-09-15T07:27:40.456Z,27.80
2018-09-15T07:30:08.821Z,26.40
2018-09-15T07:32:36.949Z,25.30
2018-09-15T07:35:05.327Z,24.90
2018-09-15T07:37:33.763Z,25.00
2018-09-15T07:40:02.021Z,24.50
2018-09-15T07:42:30.321Z,23.90
2018-09-15T07:44:58.660Z,23.60
2018-09-15T07:47:27.004Z,23.50
2018-09-15T07:49:55.539Z,24.00
2018-09-15T07:52:24.272Z,24.00
2018-09-15T07:54:52.865Z,23.80
2018-09-15T07:57:21.402Z,23.70
2018-09-15T07:59:50.868Z,23.30
2018-09-15T08:02:20.138Z,22.70
2018-09-15T08:04:48.909Z,22.00
2018-09-15T08:07:17.197Z,21.30
2018-09-15T08:09:46.310Z,20.70
2018-09-15T08:12:15.177Z,20.60
2018-09-15T08:14:43.588Z,22.30
2018-09-15T08:17:12.121Z,24.80
2018-09-15T08:19:40.656Z,27.30
2018-09-15T08:22:09.013Z,28.50
2018-09-15T08:24:37.322Z,28.10
2018-09-15T08:27:06.037Z,27.10
2018-09-15T08:29:34.431Z,26.10
2018-09-15T08:32:03.003Z,25.60
2018-09-15T08:34:31.232Z,25.30
2018-09-15T08:36:59.666Z,25.50
2018-09-15T08:39:27.814Z,26.20
2018-09-15T08:41:56.723Z,26.90
2018-09-15T08:44:25.450Z,28.10
2018-09-15T08:46:53.837Z,29.00
2018-09-15T08:49:22.476Z,29.80
2018-09-15T08:51:50.844Z,30.00
2018-09-15T08:54:19.357Z,29.10
2018-09-15T08:56:48.967Z,28.10
2018-09-15T08:59:17.275Z,27.20
2018-09-15T09:01:45.676Z,26.50
2018-09-15T09:04:14.068Z,25.90
2018-09-15T09:06:42.459Z,25.30
2018-09-15T09:09:11.875Z,24.80
2018-09-15T09:11:40.197Z,24.30
2018-09-15T09:14:08.597Z,23.90
2018-09-15T09:16:37.099Z,23.60
2018-09-15T09:19:05.579Z,23.30
2018-09-15T09:21:33.901Z,23.20
2018-09-15T09:24:02.283Z,23.00
2018-09-15T09:26:30.792Z,22.80
2018-09-15T09:28:59.006Z,22.50
2018-09-15T09:31:27.394Z,22.00
2018-09-15T09:33:55.744Z,21.60
2018-09-15T09:36:24.402Z,21.20
2018-09-15T09:38:52.994Z,21.00
2018-09-15T09:41:21.308Z,20.70
2018-09-15T09:43:49.576Z,20.40
2018-09-15T09:46:17.852Z,20.20
2018-09-15T09:48:46.082Z,20.30
2018-09-15T09:51:14.346Z,20.30
2018-09-15T09:53:42.681Z,20.20
2018-09-15T09:56:10.991Z,20.00
2018-09-15T09:58:39.295Z,19.90
2018-09-15T10:01:13.168Z,19.80
2018-09-15T10:03:41.601Z,19.70
2018-09-15T10:06:09.983Z,19.80
2018-09-15T10:08:38.415Z,19.90
2018-09-15T10:11:07.292Z,20.10
2018-09-15T10:13:35.569Z,20.20
2018-09-15T10:16:04.032Z,20.30
2018-09-15T10:18:32.291Z,20.40
2018-09-15T10:21:00.571Z,20.50
2018-09-15T10:23:28.923Z,20.60
2018-09-15T10:25:57.208Z,20.60
2018-09-15T10:28:25.579Z,20.70
2018-09-15T10:30:54.070Z,20.70
2018-09-15T10:33:22.480Z,20.70
2018-09-15T10:35:50.878Z,20.50
2018-09-15T10:38:19.400Z,20.30
2018-09-15T10:40:47.770Z,20.10
2018-09-15T10:43:16.272Z,20.00
2018-09-15T10:45:45.364Z,20.00
2018-09-15T10:48:13.797Z,19.90
2018-09-15T10:50:41.963Z,19.80
2018-09-15T10:53:10.112Z,19.60
2018-09-15T10:55:39.016Z,19.50
2018-09-15T10:58:07.431Z,19.50
2018-09-15T11:00:35.865Z,19.60
2018-09-15T11:03:05.129Z,19.80
2018-09-15T11:05:33.543Z,19.90
2018-09-15T11:08:01.898Z,20.00
2018-09-15T11:10:30.310Z,20.00
2018-09-15T11:12:59.953Z,19.80
2018-09-15T11:15:28.244Z,19.60
2018-09-15T11:17:56.558Z,19.60
2018-09-15T11:20:24.952Z,19.60
2018-09-15T11:22:53.696Z,19.70
2018-09-15T11:25:21.814Z,19.70
2018-09-15T11:27:50.374Z,19.80
2018-09-15T11:30:22.220Z,19.80
2018-09-15T11:32:50.751Z,19.70
2018-09-15T11:35:19.544Z,19.50
2018-09-15T11:37:47.922Z,19.40
2018-09-15T11:40:16.343Z,19.30
2018-09-15T11:42:45.556Z,19.20
2018-09-15T11:45:13.981Z,19.00
2018-09-15T11:47:42.281Z,19.00
2018-09-15T11:50:10.644Z,18.90
2018-09-15T11:52:39.162Z,18.90
2018-09-15T11:55:07.417Z,19.10
2018-09-15T11:57:35.714Z,19.10
2018-09-15T12:00:04.586Z,19.10
2018-09-15T12:02:34.024Z,19.10
2018-09-15T12:05:02.490Z,19.10
2018-09-15T12:07:36.626Z,19.10
2018-09-15T12:10:05.835Z,19.00
2018-09-15T12:12:34.226Z,19.00
2018-09-15T12:15:02.616Z,18.90
2018-09-15T12:17:30.814Z,18.90
2018-09-15T12:19:58.928Z,18.90
2018-09-15T12:22:27.332Z,19.00
2018-09-15T12:24:59.810Z,19.00
2018-09-15T12:27:28.315Z,19.00
2018-09-15T12:29:56.805Z,18.90
2018-09-15T12:32:25.178Z,18.80
2018-09-15T12:34:53.800Z,18.80
2018-09-15T12:37:22.133Z,18.80
2018-09-15T12:39:50.404Z,18.90
2018-09-15T12:42:19.814Z,18.90
2018-09-15T12:44:48.185Z,18.90
2018-09-15T12:47:16.719Z,18.80
2018-09-15T12:49:45.056Z,18.70
2018-09-15T12:52:14.681Z,18.80
2018-09-15T12:54:43.067Z,18.80
2018-09-15T12:57:11.411Z,18.80
2018-09-15T12:59:39.858Z,18.80
2018-09-15T13:02:08.516Z,18.70
2018-09-15T13:04:36.735Z,18.60
2018-09-15T13:07:05.181Z,18.60
2018-09-15T13:09:33.718Z,18.70
2018-09-15T13:12:02.103Z,18.90
2018-09-15T13:14:30.556Z,19.10
2018-09-15T13:16:59.071Z,19.10
2018-09-15T13:19:33.096Z,19.10
2018-09-15T13:22:01.597Z,19.00
2018-09-15T13:24:29.910Z,18.90
2018-09-15T13:26:58.212Z,18.90
2018-09-15T13:29:27.763Z,18.90
2018-09-15T13:31:56.266Z,19.10
2018-09-15T13:34:24.651Z,19.20
2018-09-15T13:36:53.111Z,19.50
2018-09-15T13:39:21.713Z,19.60
2018-09-15T13:41:50.421Z,19.60
2018-09-15T13:44:18.627Z,19.60
2018-09-15T13:46:47.342Z,19.60
2018-09-15T13:49:16.515Z,19.60
2018-09-15T13:51:45.029Z,19.40
2018-09-15T13:54:13.556Z,19.40
2018-09-15T13:56:42.953Z,19.40
2018-09-15T13:59:11.280Z,19.50
2018-09-15T14:01:39.774Z,19.50
2018-09-15T14:04:08.050Z,19.40
2018-09-15T14:06:37.593Z,19.30
2018-09-15T14:09:07.981Z,19.20
2018-09-15T14:11:36.259Z,19.10
2018-09-15T14:14:06.176Z,18.90
2018-09-15T14:16:34.596Z,18.80
2018-09-15T14:19:03.278Z,18.70
2018-09-15T14:21:31.777Z,18.70
2018-09-15T14:24:00.159Z,18.80
2018-09-15T14:26:28.571Z,18.90
2018-09-15T14:28:56.966Z,19.00
2018-09-15T14:31:25.681Z,19.10
2018-09-15T14:33:53.982Z,19.30
2018-09-15T14:36:22.370Z,19.30
2018-09-15T14:38:50.725Z,19.40
2018-09-15T14:41:19.217Z,19.40
2018-09-15T14:43:47.564Z,19.50
2018-09-15T14:46:15.865Z,19.50
2018-09-15T14:48:44.160Z,19.60
2018-09-15T14:51:12.565Z,19.60
2018-09-15T14:53:40.852Z,19.60
2018-09-15T14:56:13.793Z,19.50
2018-09-15T14:58:42.140Z,19.50
2018-09-15T15:01:10.572Z,19.50
2018-09-15T15:03:39.149Z,19.50
2018-09-15T15:06:07.708Z,19.50
2018-09-15T15:08:36.499Z,19.50
2018-09-15T15:11:05.187Z,19.50
2018-09-15T15:13:33.684Z,19.50
2018-09-15T15:16:02.193Z,19.50
2018-09-15T15:18:30.527Z,19.60
2018-09-15T15:20:59.088Z,19.60
2018-09-15T15:23:27.964Z,19.60
2018-09-15T15:25:56.453Z,19.70
2018-09-15T15:28:24.989Z,19.70
2018-09-15T15:30:53.418Z,19.70
2018-09-15T15:33:22.001Z,19.60
2018-09-15T15:35:50.537Z,19.60
2018-09-15T15:38:19.027Z,19.40
2018-09-15T15:40:47.545Z,19.30
2018-09-15T15:43:15.972Z,19.10
2018-09-15T15:45:44.538Z,19.10
2018-09-15T15:48:12.718Z,19.00
2018-09-15T15:50:41.625Z,18.90
2018-09-15T15:53:10.534Z,18.80
2018-09-15T15:55:38.983Z,18.70
2018-09-15T15:58:09.604Z,18.60
2018-09-15T16:00:37.987Z,18.50
2018-09-15T16:03:06.503Z,18.40
2018-09-15T16:05:38.855Z,18.40
2018-09-15T16:08:07.257Z,18.30
2018-09-15T16:10:35.659Z,18.20
2018-09-15T16:13:03.895Z,18.20
2018-09-15T16:15:33.289Z,18.10
2018-09-15T16:18:01.552Z,18.10
2018-09-15T16:20:30.093Z,18.00
2018-09-15T16:22:58.479Z,17.90
2018-09-15T16:25:27.102Z,17.80
2018-09-15T16:27:55.374Z,17.70
2018-09-15T16:30:23.890Z,17.60
2018-09-15T16:32:52.490Z,17.50
2018-09-15T16:35:21.002Z,17.40
2018-09-15T16:37:49.402Z,17.30
2018-09-15T16:40:17.965Z,17.20
2018-09-15T16:42:46.384Z,17.10
2018-09-15T16:45:14.802Z,16.90
2018-09-15T16:47:42.955Z,16.80
2018-09-15T16:50:11.390Z,16.70
2018-09-15T16:52:40.004Z,16.60
2018-09-15T16:55:08.767Z,16.40
2018-09-15T16:57:36.955Z,16.30
2018-09-15T17:00:07.321Z,16.10
2018-09-15T17:02:35.754Z,16.00
2018-09-15T17:05:04.461Z,15.80
2018-09-15T17:07:32.943Z,15.70
2018-09-15T17:10:01.363Z,15.60
2018-09-15T17:12:29.861Z,15.40
2018-09-15T17:14:58.129Z,15.30
2018-09-15T17:17:28.445Z,15.20
2018-09-15T17:19:56.859Z,15.00
2018-09-15T17:22:25.529Z,14.90
2018-09-15T17:24:57.601Z,14.70
2018-09-15T17:27:25.891Z,14.60
2018-09-15T17:29:54.172Z,14.40
2018-09-15T17:32:22.766Z,14.30
2018-09-15T17:34:51.114Z,14.20
2018-09-15T17:37:19.485Z,14.10
2018-09-15T17:39:47.913Z,14.00
2018-09-15T17:42:16.392Z,13.90
2018-09-15T17:44:44.666Z,13.70
2018-09-15T17:47:13.065Z,13.60
2018-09-15T17:49:41.389Z,13.50
2018-09-15T17:52:09.882Z,13.50
2018-09-15T17:54:38.430Z,13.30
2018-09-15T17:57:06.870Z,13.20
2018-09-15T17:59:35.385Z,13.10
2018-09-15T18:02:03.882Z,13.00
2018-09-15T18:04:32.183Z,13.00
2018-09-15T18:07:00.685Z,12.90
2018-09-15T18:09:29.313Z,12.80
2018-09-15T18:11:57.685Z,12.70
2018-09-15T18:14:26.164Z,12.70
2018-09-15T18:16:54.405Z,12.60
2018-09-15T18:19:22.887Z,12.50
2018-09-15T18:21:51.450Z,12.50
2018-09-15T18:24:19.676Z,12.40
2018-09-15T18:26:48.100Z,12.30
2018-09-15T18:29:16.796Z,12.30
2018-09-15T18:31:45.275Z,12.20
2018-09-15T18:34:13.660Z,12.20
2018-09-15T18:36:42.303Z,12.10
2018-09-15T18:39:11.205Z,12.00
2018-09-15T18:41:39.813Z,11.90
2018-09-15T18:44:08.306Z,11.90
2018-09-15T18:46:36.717Z,11.90
2018-09-15T18:49:05.824Z,11.80
2018-09-15T18:51:34.313Z,11.80
2018-09-15T18:54:03.296Z,11.70
2018-09-15T18:56:31.547Z,11.60
2018-09-15T18:58:59.834Z,11.60
2018-09-15T19:01:28.239Z,11.60
2018-09-15T19:03:56.735Z,11.50
2018-09-15T19:06:26.441Z,11.50
2018-09-15T19:08:54.424Z,11.40
2018-09-15T19:11:22.946Z,11.40
2018-09-15T19:13:51.348Z,11.30
2018-09-15T19:16:26.079Z,11.30
2018-09-15T19:18:54.504Z,11.30
2018-09-15T19:21:22.719Z,11.20
2018-09-15T19:23:51.668Z,11.20
2018-09-15T19:26:20.214Z,11.20
2018-09-15T19:28:48.620Z,11.10
2018-09-15T19:31:17.025Z,11.10
2018-09-15T19:33:45.516Z,11.00
2018-09-15T19:36:14.076Z,11.00
2018-09-15T19:38:42.517Z,11.00
2018-09-15T19:41:11.018Z,11.00
2018-09-15T19:43:39.341Z,10.90
2018-09-15T19:46:15.083Z,10.90
2018-09-15T19:48:43.565Z,10.90
2018-09-15T19:51:11.986Z,10.80
2018-09-15T19:53:40.384Z,10.80
2018-09-15T19:56:09.089Z,10.80
2018-09-15T19:58:37.477Z,10.70
2018-09-15T20:01:05.875Z,10.70
2018-09-15T20:03:34.193Z,10.70
2018-09-15T20:06:02.817Z,10.60
2018-09-15T20:08:31.188Z,10.60
2018-09-15T20:10:59.595Z,10.60
2018-09-15T20:13:27.830Z,10.60
2018-09-15T20:15:54.786Z,10.60
2018-09-15T20:18:21.716Z,10.50
2018-09-15T20:20:48.594Z,10.50
2018-09-15T20:23:16.986Z,10.50
2018-09-15T20:25:46.206Z,10.50
2018-09-15T20:28:14.708Z,10.40
2018-09-15T20:30:42.984Z,10.40
2018-09-15T20:33:11.726Z,10.40
2018-09-15T20:35:40.011Z,10.30
2018-09-15T20:38:08.507Z,10.30
2018-09-15T20:40:41.881Z,10.30
2018-09-15T20:43:10.228Z,10.20
2018-09-15T20:45:38.635Z,10.20
2018-09-15T20:48:07.268Z,10.20
2018-09-15T20:50:39.565Z,10.10
2018-09-15T20:53:07.941Z,10.10
2018-09-15T20:55:36.101Z,10.10
2018-09-15T20:58:07.674Z,10.10
2018-09-15T21:00:36.139Z,10.10
2018-09-15T21:03:04.658Z,10.10
2018-09-15T21:05:33.048Z,10.10
2018-09-15T21:08:07.394Z,10.00
2018-09-15T21:10:35.805Z,10.00
2018-09-15T21:13:04.292Z,10.00
2018-09-15T21:15:49.483Z,10.00
2018-09-15T21:18:17.795Z,10.00
2018-09-15T21:20:46.175Z,9.90
2018-09-15T21:23:21.415Z,9.90
2018-09-15T21:25:50.033Z,9.90
2018-09-15T21:28:18.413Z,9.80
2018-09-15T21:33:41.009Z,9.80
2018-09-15T21:36:09.411Z,9.80
2018-09-15T21:38:37.800Z,9.80
2018-09-15T21:41:06.518Z,9.70
2018-09-15T21:43:45.035Z,9.70
2018-09-15T21:46:13.449Z,9.70
2018-09-15T21:48:41.760Z,9.70
2018-09-15T21:51:21.265Z,9.70
2018-09-15T21:53:49.756Z,9.70
2018-09-15T21:56:18.292Z,9.70
2018-09-15T21:58:46.692Z,9.70
2018-09-15T22:01:23.176Z,9.70
2018-09-15T22:03:56.968Z,9.70
2018-09-15T22:06:25.574Z,9.70
2018-09-15T22:08:54.084Z,9.70
2018-09-15T22:11:22.576Z,9.70
2018-09-15T22:13:50.856Z,9.70
2018-09-15T22:16:19.376Z,9.70
2018-09-15T22:18:49.596Z,9.70
2018-09-15T22:21:18.085Z,9.70
2018-09-15T22:23:46.223Z,9.70
2018-09-15T22:26:15.371Z,9.70
2018-09-15T22:28:43.707Z,9.70
2018-09-15T22:31:12.331Z,9.70
2018-09-15T22:33:40.731Z,9.70
2018-09-15T22:36:09.167Z,9.70
2018-09-15T22:38:45.383Z,9.70
2018-09-15T22:41:13.620Z,9.70
2018-09-15T22:43:42.000Z,9.70
2018-09-15T22:46:10.420Z,9.70
2018-09-15T22:48:39.100Z,9.70
2018-09-15T22:51:07.622Z,9.70
2018-09-15T22:53:36.102Z,9.70
2018-09-15T22:56:10.661Z,9.70
2018-09-15T22:58:39.054Z,9.60
2018-09-15T23:01:07.662Z,9.60
2018-09-15T23:03:35.933Z,9.60
2018-09-15T23:06:04.158Z,9.60
2018-09-15T23:08:32.434Z,9.60
2018-09-15T23:11:00.839Z,9.60
2018-09-15T23:13:29.247Z,9.60
2018-09-15T23:16:03.691Z,9.60
2018-09-15T23:18:32.068Z,9.60
2018-09-15T23:21:00.357Z,9.60
2018-09-15T23:23:28.665Z,9.50
2018-09-15T23:25:56.945Z,9.60
2018-09-15T23:28:25.253Z,9.60
2018-09-15T23:30:53.670Z,9.60
2018-09-15T23:33:21.835Z,9.60
2018-09-15T23:35:50.057Z,9.60
2018-09-15T23:38:18.548Z,9.70
2018-09-15T23:40:46.939Z,9.60
2018-09-15T23:43:15.572Z,9.60
2018-09-15T23:45:43.842Z,9.60
2018-09-15T23:48:12.250Z,9.70
2018-09-15T23:50:40.555Z,9.70
2018-09-15T23:53:14.792Z,9.60
2018-09-15T23:55:43.026Z,9.70
2018-09-15T23:58:11.251Z,9.60
